Time;durP1;ratioP1;P1;durP2;ratioP2;P2;SDS_P1;SDS_P2;PMS_P1;PMS_P2;Temp;Humidity;BMP_temperature;BMP_pressure;BME280_temperature;BME280_humidity;BME280_pressure;Samples;Min_cycle;Max_cycle;Signal;HPM_P1;HPM_P2
2022/03/12 00:00:57;;;;;;;10.35;5.40;;;;;;;;;;5051656;28;20029;-63
2022/03/12 00:03:23;;;;;;;10.30;5.63;;;;;;;;;;5050939;28;20044;-64
2022/03/12 00:05:55;;;;;;;11.30;5.80;;;;;;;;;;5051976;28;20048;-65
2022/03/12 00:08:21;;;;;;;9.63;5.32;;;;;;;;;;5050303;28;20037;-63
2022/03/12 00:10:52;;;;;;;14.05;6.13;;;;;;;;;;5051839;28;20045;-63
2022/03/12 00:13:20;;;;;;;10.53;5.57;;;;;;;;;;5050760;28;20037;-63
2022/03/12 00:15:50;;;;;;;8.05;5.10;;;;;;;;;;5051772;28;20036;-63
2022/03/12 00:18:18;;;;;;;10.23;5.80;;;;;;;;;;5050854;28;20029;-62
2022/03/12 00:20:46;;;;;;;10.23;5.57;;;;;;;;;;5066632;28;20045;-63
2022/03/12 00:23:16;;;;;;;9.05;5.05;;;;;;;;;;5050272;28;20467;-62
2022/03/12 00:25:43;;;;;;;10.45;5.80;;;;;;;;;;5051853;28;20029;-63
2022/03/12 00:28:09;;;;;;;14.90;5.65;;;;;;;;;;5051220;28;20033;-63
2022/03/12 00:30:35;;;;;;;9.85;6.00;;;;;;;;;;5050235;28;20479;-63
2022/03/12 00:33:02;;;;;;;9.68;5.63;;;;;;;;;;5051329;28;20025;-64
2022/03/12 00:35:27;;;;;;;10.52;5.55;;;;;;;;;;5050102;28;20489;-63
2022/03/12 00:37:53;;;;;;;10.23;5.82;;;;;;;;;;5050765;28;20124;-63
2022/03/12 00:40:20;;;;;;;12.00;6.05;;;;;;;;;;5053009;28;20029;-63
2022/03/12 00:42:46;;;;;;;10.73;5.97;;;;;;;;;;5055439;28;20041;-63
2022/03/12 00:45:13;;;;;;;12.57;6.00;;;;;;;;;;5053025;28;20020;-62
2022/03/12 00:47:38;;;;;;;10.32;5.45;;;;;;;;;;5054525;28;20032;-64
2022/03/12 00:50:05;;;;;;;9.18;5.72;;;;;;;;;;5053762;28;20087;-63
2022/03/12 00:52:31;;;;;;;13.40;5.68;;;;;;;;;;5054081;28;20037;-63
2022/03/12 00:54:56;;;;;;;10.23;5.75;;;;;;;;;;5053562;28;20120;-63
2022/03/12 00:57:22;;;;;;;10.73;5.68;;;;;;;;;;5052891;28;20207;-62
2022/03/12 00:59:47;;;;;;;11.02;6.20;;;;;;;;;;5054441;28;20075;-64
2022/03/12 01:02:16;;;;;;;12.25;6.22;;;;;;;;;;5054534;28;20029;-63
2022/03/12 01:04:43;;;;;;;9.95;5.85;;;;;;;;;;5050053;28;20041;-64
2022/03/12 01:07:10;;;;;;;12.48;5.88;;;;;;;;;;5054503;28;20470;-63
2022/03/12 01:09:36;;;;;;;13.13;5.90;;;;;;;;;;5052566;28;20024;-63
2022/03/12 01:12:02;;;;;;;10.05;5.75;;;;;;;;;;5054402;28;20108;-65
2022/03/12 01:14:29;;;;;;;10.70;6.13;;;;;;;;;;5052184;28;20040;-65
2022/03/12 01:16:56;;;;;;;10.75;5.82;;;;;;;;;;5056726;28;20508;-64
2022/03/12 01:19:22;;;;;;;10.43;5.45;;;;;;;;;;5057500;28;20082;-65
2022/03/12 01:21:47;;;;;;;11.93;5.40;;;;;;;;;;5044991;28;20056;-64
2022/03/12 01:24:12;;;;;;;11.02;5.97;;;;;;;;;;5054342;28;20041;-68
2022/03/12 01:26:40;;;;;;;10.63;5.60;;;;;;;;;;5051245;28;20453;-65
2022/03/12 01:29:07;;;;;;;11.23;5.82;;;;;;;;;;5054724;28;20029;-65
2022/03/12 01:31:34;;;;;;;9.05;5.80;;;;;;;;;;5050684;28;20597;-65
2022/03/12 01:34:00;;;;;;;13.10;6.22;;;;;;;;;;5054264;28;20029;-64
2022/03/12 01:36:26;;;;;;;12.73;6.25;;;;;;;;;;5061147;28;20033;-65
2022/03/12 01:38:53;;;;;;;12.00;5.78;;;;;;;;;;5065536;28;20029;-65
2022/03/12 01:41:22;;;;;;;14.02;6.10;;;;;;;;;;5053792;28;20025;-64
2022/03/12 01:43:49;;;;;;;11.25;6.00;;;;;;;;;;5053023;28;20112;-65
2022/03/12 01:46:15;;;;;;;15.38;6.35;;;;;;;;;;5071803;28;20036;-64
2022/03/12 01:48:46;;;;;;;12.30;5.95;;;;;;;;;;5064909;28;20033;-65
2022/03/12 01:51:12;;;;;;;12.50;6.00;;;;;;;;;;5063933;28;20036;-65
2022/03/12 01:53:37;;;;;;;10.07;5.80;;;;;;;;;;5066756;28;20098;-66
2022/03/12 01:56:03;;;;;;;9.48;5.82;;;;;;;;;;5053014;28;20045;-66
2022/03/12 01:58:29;;;;;;;8.98;5.18;;;;;;;;;;5058775;28;20120;-64
2022/03/12 02:00:57;;;;;;;9.95;5.88;;;;;;;;;;5052440;28;20025;-65
2022/03/12 02:03:28;;;;;;;10.68;6.03;;;;;;;;;;5048561;28;20043;-64
2022/03/12 02:05:54;;;;;;;9.50;5.78;;;;;;;;;;5048619;28;20121;-64
2022/03/12 02:08:20;;;;;;;12.65;5.88;;;;;;;;;;5062669;28;20041;-62
2022/03/12 02:10:48;;;;;;;13.90;5.45;;;;;;;;;;5042472;28;20032;-64
2022/03/12 02:13:14;;;;;;;10.90;5.97;;;;;;;;;;5034597;28;20120;-64
2022/03/12 02:15:39;;;;;;;13.52;6.00;;;;;;;;;;5050538;28;20198;-65
2022/03/12 02:18:06;;;;;;;11.18;6.07;;;;;;;;;;5052057;28;20470;-66
2022/03/12 02:20:32;;;;;;;11.63;6.10;;;;;;;;;;5052730;28;20052;-64
2022/03/12 02:22:59;;;;;;;14.32;6.07;;;;;;;;;;5055286;28;20510;-63
2022/03/12 02:25:30;;;;;;;10.95;5.85;;;;;;;;;;5052460;28;20025;-62
2022/03/12 02:27:57;;;;;;;10.70;5.70;;;;;;;;;;5051826;28;20032;-65
2022/03/12 02:30:37;;;;;;;10.73;5.60;;;;;;;;;;5055458;28;20037;-64
2022/03/12 02:33:04;;;;;;;12.07;6.53;;;;;;;;;;5047552;28;20049;-64
2022/03/12 02:35:35;;;;;;;11.90;6.32;;;;;;;;;;5050363;28;20098;-64
2022/03/12 02:38:07;;;;;;;15.05;6.07;;;;;;;;;;5053620;28;20029;-63
2022/03/12 02:40:33;;;;;;;14.60;6.07;;;;;;;;;;5050800;28;20032;-65
2022/03/12 02:43:00;;;;;;;10.70;6.05;;;;;;;;;;5055605;28;20043;-65
2022/03/12 02:45:28;;;;;;;12.77;6.05;;;;;;;;;;5052163;28;20104;-64
2022/03/12 02:47:57;;;;;;;11.23;6.03;;;;;;;;;;5068312;28;20032;-64
2022/03/12 02:50:23;;;;;;;9.75;5.50;;;;;;;;;;5055543;28;20028;-63
2022/03/12 02:52:49;;;;;;;11.13;5.93;;;;;;;;;;5053559;28;20060;-65
2022/03/12 02:55:19;;;;;;;10.10;5.95;;;;;;;;;;5050686;28;20055;-64
2022/03/12 02:57:46;;;;;;;12.45;6.45;;;;;;;;;;5050084;28;20033;-65
2022/03/12 03:00:14;;;;;;;10.85;5.40;;;;;;;;;;5050961;28;20029;-64
2022/03/12 03:02:40;;;;;;;12.55;6.03;;;;;;;;;;5050470;28;20635;-65
2022/03/12 03:07:59;;;;;;;10.65;5.72;;;;;;;;;;5053826;28;20475;-64
2022/03/12 03:10:37;;;;;;;13.95;6.30;;;;;;;;;;5071152;28;20035;-64
2022/03/12 03:13:18;;;;;;;10.75;6.10;;;;;;;;;;5051185;28;20029;-64
2022/03/12 03:15:53;;;;;;;11.77;5.93;;;;;;;;;;5049501;28;20025;-64
2022/03/12 03:18:22;;;;;;;10.77;6.07;;;;;;;;;;5050754;28;20090;-64
2022/03/12 03:20:49;;;;;;;11.32;5.85;;;;;;;;;;5049361;28;20045;-65
2022/03/12 03:23:15;;;;;;;10.40;6.07;;;;;;;;;;5038748;28;20107;-65
2022/03/12 03:25:41;;;;;;;10.80;6.30;;;;;;;;;;5049766;28;20604;-64
2022/03/12 03:28:08;;;;;;;14.77;6.68;;;;;;;;;;5052647;28;20029;-63
2022/03/12 03:30:36;;;;;;;12.63;6.30;;;;;;;;;;5033160;28;20037;-65
2022/03/12 03:33:05;;;;;;;12.52;6.22;;;;;;;;;;5039455;28;20037;-65
2022/03/12 03:35:30;;;;;;;14.65;6.28;;;;;;;;;;5031716;28;20095;-64
2022/03/12 03:37:56;;;;;;;10.63;6.10;;;;;;;;;;5049869;28;20037;-66
2022/03/12 03:40:22;;;;;;;14.88;6.35;;;;;;;;;;5049040;28;20221;-63
2022/03/12 03:42:47;;;;;;;12.00;6.22;;;;;;;;;;5038089;28;20052;-64
2022/03/12 03:45:24;;;;;;;10.05;6.18;;;;;;;;;;5040712;28;20029;-64
2022/03/12 03:47:51;;;;;;;11.27;6.22;;;;;;;;;;5050805;28;20029;-65
2022/03/12 03:50:18;;;;;;;12.25;6.35;;;;;;;;;;5051718;28;20033;-64
2022/03/12 03:52:44;;;;;;;11.90;6.10;;;;;;;;;;5051261;28;20040;-65
2022/03/12 03:55:10;;;;;;;13.70;7.00;;;;;;;;;;5049242;28;20173;-64
2022/03/12 03:57:35;;;;;;;11.70;6.28;;;;;;;;;;5050239;28;20485;-64
2022/03/12 04:00:01;;;;;;;11.05;6.28;;;;;;;;;;5049827;28;20021;-64
2022/03/12 04:02:26;;;;;;;11.18;6.00;;;;;;;;;;5050539;28;20040;-63
2022/03/12 04:04:52;;;;;;;11.77;6.00;;;;;;;;;;5050956;28;20029;-65
2022/03/12 04:07:17;;;;;;;11.52;6.35;;;;;;;;;;5050518;28;20033;-63
2022/03/12 04:09:43;;;;;;;17.85;6.72;;;;;;;;;;5049559;28;20040;-64
2022/03/12 04:12:08;;;;;;;12.13;6.18;;;;;;;;;;5049140;28;20376;-64
2022/03/12 04:14:34;;;;;;;11.95;6.20;;;;;;;;;;5051611;28;20036;-64
2022/03/12 04:17:00;;;;;;;11.30;6.53;;;;;;;;;;5054126;28;20033;-65
2022/03/12 04:19:29;;;;;;;11.75;6.57;;;;;;;;;;5053054;28;20049;-64
2022/03/12 04:21:56;;;;;;;11.35;6.60;;;;;;;;;;5053867;28;20032;-65
2022/03/12 04:24:23;;;;;;;10.40;6.10;;;;;;;;;;5055539;28;20082;-64
2022/03/12 04:26:50;;;;;;;11.02;6.38;;;;;;;;;;5053683;28;20052;-65
2022/03/12 04:29:16;;;;;;;11.95;6.25;;;;;;;;;;5053858;28;20520;-64
2022/03/12 04:31:41;;;;;;;14.02;6.07;;;;;;;;;;5052367;28;20031;-65
2022/03/12 04:34:06;;;;;;;12.63;6.32;;;;;;;;;;5053830;28;20107;-65
2022/03/12 04:36:34;;;;;;;11.25;6.00;;;;;;;;;;5052993;28;20029;-63
2022/03/12 04:39:00;;;;;;;14.40;6.85;;;;;;;;;;5054623;28;20126;-64
2022/03/12 04:41:30;;;;;;;15.52;7.00;;;;;;;;;;5054854;28;20029;-63
2022/03/12 04:43:56;;;;;;;11.90;6.40;;;;;;;;;;5054738;28;20039;-65
2022/03/12 04:46:21;;;;;;;11.77;6.88;;;;;;;;;;5054803;28;20033;-65
2022/03/12 04:48:46;;;;;;;11.85;6.57;;;;;;;;;;5053356;28;20021;-65
2022/03/12 04:51:12;;;;;;;12.00;6.68;;;;;;;;;;5054244;28;20039;-65
2022/03/12 04:53:38;;;;;;;11.82;6.88;;;;;;;;;;5052624;28;20364;-65
2022/03/12 04:56:04;;;;;;;13.27;6.50;;;;;;;;;;5047141;28;20040;-65
2022/03/12 04:58:29;;;;;;;12.88;6.40;;;;;;;;;;5051729;28;20486;-61
2022/03/12 05:00:55;;;;;;;10.20;6.07;;;;;;;;;;5053184;28;20340;-65
2022/03/12 05:03:22;;;;;;;12.70;6.13;;;;;;;;;;5053837;28;20037;-65
2022/03/12 05:05:49;;;;;;;12.15;6.22;;;;;;;;;;5052399;28;20682;-65
2022/03/12 05:08:18;;;;;;;11.20;6.45;;;;;;;;;;5052889;28;20030;-65
2022/03/12 05:10:49;;;;;;;12.80;6.60;;;;;;;;;;5053224;28;20040;-65
2022/03/12 05:13:16;;;;;;;13.43;6.55;;;;;;;;;;5053434;28;20033;-64
2022/03/12 05:15:42;;;;;;;15.00;6.55;;;;;;;;;;5042595;28;20489;-64
2022/03/12 05:18:12;;;;;;;10.50;6.03;;;;;;;;;;5055344;28;20033;-64
2022/03/12 05:20:43;;;;;;;12.18;6.70;;;;;;;;;;5048830;28;20130;-63
2022/03/12 05:23:09;;;;;;;18.10;7.73;;;;;;;;;;5052626;28;20128;-64
2022/03/12 05:25:39;;;;;;;10.48;5.57;;;;;;;;;;5048676;28;20021;-63
2022/03/12 05:28:04;;;;;;;15.05;6.70;;;;;;;;;;5053940;28;20059;-65
2022/03/12 05:30:30;;;;;;;12.63;6.32;;;;;;;;;;5044172;28;20037;-62
2022/03/12 05:32:55;;;;;;;14.45;6.32;;;;;;;;;;5047941;28;20041;-65
2022/03/12 05:35:21;;;;;;;13.73;6.63;;;;;;;;;;5051981;28;20112;-67
2022/03/12 05:37:51;;;;;;;13.23;6.38;;;;;;;;;;5051629;28;20398;-65
2022/03/12 05:40:21;;;;;;;11.87;6.83;;;;;;;;;;5052675;28;20322;-65
2022/03/12 05:42:47;;;;;;;27.23;7.00;;;;;;;;;;5052996;28;20112;-65
2022/03/12 05:45:14;;;;;;;13.95;6.45;;;;;;;;;;5053608;28;20481;-65
2022/03/12 05:47:41;;;;;;;11.07;5.95;;;;;;;;;;5051002;28;20086;-65
2022/03/12 05:50:09;;;;;;;10.73;6.20;;;;;;;;;;5053732;28;20029;-65
2022/03/12 05:52:39;;;;;;;11.10;6.50;;;;;;;;;;5050981;28;20033;-65
2022/03/12 05:55:08;;;;;;;11.52;6.00;;;;;;;;;;5052288;28;20033;-66
2022/03/12 05:57:37;;;;;;;13.15;6.50;;;;;;;;;;5053500;28;20037;-63
2022/03/12 06:00:10;;;;;;;15.88;6.72;;;;;;;;;;5052965;28;20027;-64
2022/03/12 06:02:35;;;;;;;15.20;6.32;;;;;;;;;;5048067;28;20176;-63
2022/03/12 06:05:01;;;;;;;14.35;6.40;;;;;;;;;;5047430;28;20414;-63
2022/03/12 06:07:31;;;;;;;10.20;6.50;;;;;;;;;;5046094;28;20025;-65
2022/03/12 06:09:56;;;;;;;10.93;6.00;;;;;;;;;;5052727;28;20120;-65
2022/03/12 06:12:26;;;;;;;11.65;6.30;;;;;;;;;;5046642;28;20112;-64
2022/03/12 06:14:56;;;;;;;11.20;6.43;;;;;;;;;;5050385;28;20486;-64
2022/03/12 06:17:24;;;;;;;13.77;6.03;;;;;;;;;;5053716;28;20038;-65
2022/03/12 06:19:51;;;;;;;14.18;6.22;;;;;;;;;;5050443;28;20041;-64
2022/03/12 06:22:16;;;;;;;15.52;6.82;;;;;;;;;;5051649;28;20051;-63
2022/03/12 06:24:42;;;;;;;11.30;6.55;;;;;;;;;;5071396;28;20036;-65
2022/03/12 06:27:07;;;;;;;15.98;6.68;;;;;;;;;;5052964;28;20394;-64
2022/03/12 06:29:35;;;;;;;13.30;6.97;;;;;;;;;;5052901;28;20039;-62
2022/03/12 06:32:00;;;;;;;16.30;6.15;;;;;;;;;;5056824;28;20055;-64
2022/03/12 06:34:26;;;;;;;12.68;6.75;;;;;;;;;;5073321;28;20037;-65
2022/03/12 06:36:51;;;;;;;15.77;6.85;;;;;;;;;;5068473;28;20526;-64
2022/03/12 06:39:17;;;;;;;11.52;6.32;;;;;;;;;;5037188;28;20391;-63
2022/03/12 06:41:45;;;;;;;15.35;6.70;;;;;;;;;;5060189;28;20382;-66
2022/03/12 06:44:11;;;;;;;12.43;6.50;;;;;;;;;;5053244;28;20028;-71
2022/03/12 06:46:37;;;;;;;17.10;6.93;;;;;;;;;;5051667;28;20425;-68
2022/03/12 06:49:04;;;;;;;18.88;6.90;;;;;;;;;;5053109;28;20025;-70
2022/03/12 06:51:30;;;;;;;10.73;6.28;;;;;;;;;;5052409;28;20056;-70
2022/03/12 06:53:56;;;;;;;18.23;6.65;;;;;;;;;;5052101;28;20075;-70
2022/03/12 06:56:21;;;;;;;15.50;6.68;;;;;;;;;;5052293;28;20040;-70
2022/03/12 06:58:47;;;;;;;16.85;6.40;;;;;;;;;;5050750;28;20140;-71
2022/03/12 07:01:12;;;;;;;20.95;6.20;;;;;;;;;;5064846;28;20032;-70
2022/03/12 07:03:38;;;;;;;15.68;6.80;;;;;;;;;;5071119;28;20417;-67
2022/03/12 07:06:03;;;;;;;13.80;6.72;;;;;;;;;;5061584;28;20031;-71
2022/03/12 07:08:29;;;;;;;14.43;6.72;;;;;;;;;;5052777;28;20390;-71
2022/03/12 07:10:56;;;;;;;19.23;6.80;;;;;;;;;;5062250;28;20099;-72
2022/03/12 07:13:22;;;;;;;12.80;6.53;;;;;;;;;;5051870;28;20029;-71
2022/03/12 07:15:49;;;;;;;11.80;6.30;;;;;;;;;;5051566;28;20414;-69
2022/03/12 07:18:15;;;;;;;16.80;6.50;;;;;;;;;;5071046;28;20055;-71
2022/03/12 07:20:40;;;;;;;15.18;6.32;;;;;;;;;;5057428;28;20549;-72
2022/03/12 07:23:06;;;;;;;17.83;6.30;;;;;;;;;;5050713;28;20032;-70
2022/03/12 07:25:32;;;;;;;11.90;6.35;;;;;;;;;;5050965;28;20049;-70
2022/03/12 07:27:58;;;;;;;13.40;6.57;;;;;;;;;;5049145;28;20036;-70
2022/03/12 07:30:23;;;;;;;13.75;6.68;;;;;;;;;;5053198;28;20397;-70
2022/03/12 07:32:49;;;;;;;11.88;6.32;;;;;;;;;;5051087;28;20065;-70
2022/03/12 07:35:18;;;;;;;13.63;6.45;;;;;;;;;;5058319;28;20079;-70
2022/03/12 07:37:45;;;;;;;11.13;6.50;;;;;;;;;;5070532;28;20060;-70
2022/03/12 07:40:13;;;;;;;15.70;6.55;;;;;;;;;;5072252;28;20040;-71
2022/03/12 07:42:39;;;;;;;12.27;6.35;;;;;;;;;;5060631;28;20033;-65
2022/03/12 07:45:06;;;;;;;11.10;6.43;;;;;;;;;;5050741;28;20082;-70
2022/03/12 07:47:31;;;;;;;11.50;6.28;;;;;;;;;;5051300;28;20494;-71
2022/03/12 07:49:57;;;;;;;10.00;5.55;;;;;;;;;;5050297;28;20051;-71
2022/03/12 07:52:22;;;;;;;12.88;5.95;;;;;;;;;;5051914;28;20029;-71
2022/03/12 07:54:47;;;;;;;9.90;6.07;;;;;;;;;;5050263;28;20040;-68
2022/03/12 07:57:13;;;;;;;12.45;6.22;;;;;;;;;;5051167;28;20029;-70
2022/03/12 07:59:39;;;;;;;13.85;6.22;;;;;;;;;;5049435;28;20105;-68
2022/03/12 08:02:06;;;;;;;10.82;6.00;;;;;;;;;;5050387;28;20044;-72
2022/03/12 08:04:33;;;;;;;10.13;6.20;;;;;;;;;;5050512;28;20033;-72
2022/03/12 08:07:02;;;;;;;15.65;6.05;;;;;;;;;;5050156;28;20061;-71
2022/03/12 08:09:31;;;;;;;10.75;6.18;;;;;;;;;;5053999;28;20036;-71
2022/03/12 08:11:58;;;;;;;9.80;5.78;;;;;;;;;;5065535;28;20039;-72
2022/03/12 08:14:23;;;;;;;11.50;6.25;;;;;;;;;;5051183;28;20061;-71
2022/03/12 08:16:51;;;;;;;10.90;6.25;;;;;;;;;;5050530;28;20056;-71
2022/03/12 08:19:17;;;;;;;11.43;6.45;;;;;;;;;;5049488;28;20095;-71
2022/03/12 08:21:44;;;;;;;11.90;6.60;;;;;;;;;;5050280;28;20033;-70
2022/03/12 08:24:10;;;;;;;11.70;6.10;;;;;;;;;;5054196;28;20037;-71
2022/03/12 08:26:41;;;;;;;11.57;6.60;;;;;;;;;;5051241;28;20029;-70
2022/03/12 08:29:09;;;;;;;10.98;7.07;;;;;;;;;;5058367;28;20115;-72
2022/03/12 08:31:35;;;;;;;10.18;6.35;;;;;;;;;;5071690;28;20040;-72
2022/03/12 08:34:00;;;;;;;10.35;6.22;;;;;;;;;;5062919;28;20037;-72
2022/03/12 08:36:25;;;;;;;12.05;5.90;;;;;;;;;;5050787;28;20062;-73
2022/03/12 08:38:51;;;;;;;10.63;6.28;;;;;;;;;;5048679;28;20037;-72
2022/03/12 08:41:16;;;;;;;11.02;6.20;;;;;;;;;;5051642;28;20529;-73
2022/03/12 08:43:42;;;;;;;12.35;5.75;;;;;;;;;;5050026;28;20037;-68
2022/03/12 08:46:08;;;;;;;16.70;6.40;;;;;;;;;;5050551;28;20037;-74
2022/03/12 08:48:34;;;;;;;10.45;6.10;;;;;;;;;;5050335;28;20037;-72
2022/03/12 08:51:00;;;;;;;9.27;5.68;;;;;;;;;;5064353;28;20082;-72
2022/03/12 08:53:26;;;;;;;12.85;6.13;;;;;;;;;;5066008;28;20064;-71
2022/03/12 08:55:51;;;;;;;9.35;6.05;;;;;;;;;;5030091;28;20034;-71
2022/03/12 08:58:18;;;;;;;8.98;5.57;;;;;;;;;;5043555;28;20032;-72
2022/03/12 09:00:44;;;;;;;11.82;6.05;;;;;;;;;;5062552;28;20036;-68
2022/03/12 09:03:19;;;;;;;14.02;5.80;;;;;;;;;;5073978;28;20036;-71
2022/03/12 09:05:46;;;;;;;9.98;5.85;;;;;;;;;;5059946;28;20041;-70
2022/03/12 09:08:12;;;;;;;9.32;5.68;;;;;;;;;;5054319;28;20033;-72
2022/03/12 09:10:38;;;;;;;16.05;6.10;;;;;;;;;;5054406;28;20115;-73
2022/03/12 09:13:06;;;;;;;9.73;5.65;;;;;;;;;;5053503;28;20589;-73
2022/03/12 09:15:31;;;;;;;11.02;5.50;;;;;;;;;;5053241;28;20044;-73
2022/03/12 09:17:57;;;;;;;11.48;6.13;;;;;;;;;;5053183;28;20040;-72
2022/03/12 09:20:23;;;;;;;14.02;5.70;;;;;;;;;;5052054;28;20048;-72
2022/03/12 09:22:48;;;;;;;9.95;5.80;;;;;;;;;;5053278;28;20605;-71
2022/03/12 09:25:14;;;;;;;12.40;6.15;;;;;;;;;;5054605;28;20036;-73
2022/03/12 09:27:42;;;;;;;10.43;5.82;;;;;;;;;;5053906;28;20041;-73
2022/03/12 09:30:08;;;;;;;11.90;6.40;;;;;;;;;;5052618;28;20039;-72
2022/03/12 09:32:35;;;;;;;15.13;5.93;;;;;;;;;;5052755;28;20035;-72
2022/03/12 09:35:01;;;;;;;12.48;6.10;;;;;;;;;;5071150;28;20087;-71
2022/03/12 09:37:26;;;;;;;11.20;6.07;;;;;;;;;;5054309;28;20032;-73
2022/03/12 09:39:52;;;;;;;11.55;5.72;;;;;;;;;;5051349;28;20033;-72
2022/03/12 09:42:17;;;;;;;10.55;5.95;;;;;;;;;;5052534;28;20044;-73
2022/03/12 09:44:43;;;;;;;10.10;5.93;;;;;;;;;;5053776;28;20039;-67
2022/03/12 09:47:08;;;;;;;13.32;6.35;;;;;;;;;;5051570;28;20033;-72
2022/03/12 09:49:35;;;;;;;9.23;5.70;;;;;;;;;;5053325;28;20060;-71
2022/03/12 09:52:01;;;;;;;9.95;6.00;;;;;;;;;;5051793;28;20067;-73
2022/03/12 09:54:28;;;;;;;12.68;6.18;;;;;;;;;;5054031;28;20040;-73
2022/03/12 09:56:54;;;;;;;9.15;5.72;;;;;;;;;;5051590;28;20028;-73
2022/03/12 09:59:20;;;;;;;10.00;5.85;;;;;;;;;;5066963;28;20068;-70
2022/03/12 10:01:45;;;;;;;12.43;5.82;;;;;;;;;;5061352;28;20045;-66
2022/03/12 10:04:10;;;;;;;12.63;6.22;;;;;;;;;;5051867;28;20037;-71
2022/03/12 10:06:36;;;;;;;10.85;6.10;;;;;;;;;;5054772;28;20033;-72
2022/03/12 10:09:03;;;;;;;13.35;6.47;;;;;;;;;;5063072;28;20044;-72
2022/03/12 10:11:28;;;;;;;11.15;6.10;;;;;;;;;;5052057;28;20483;-72
2022/03/12 10:13:53;;;;;;;13.73;5.80;;;;;;;;;;5057796;28;20098;-74
2022/03/12 10:16:19;;;;;;;15.43;6.25;;;;;;;;;;5053014;28;20184;-73
2022/03/12 10:18:46;;;;;;;12.93;7.30;;;;;;;;;;5062518;28;20036;-70
2022/03/12 10:21:11;;;;;;;10.57;6.20;;;;;;;;;;5052472;28;20091;-73
2022/03/12 10:23:37;;;;;;;11.18;6.55;;;;;;;;;;5053173;28;20041;-73
2022/03/12 10:26:02;;;;;;;9.57;6.03;;;;;;;;;;5052650;28;20048;-73
2022/03/12 10:28:32;;;;;;;11.75;6.07;;;;;;;;;;5052833;28;20032;-72
2022/03/12 10:30:58;;;;;;;10.00;6.32;;;;;;;;;;5050208;28;20028;-69
2022/03/12 10:33:25;;;;;;;11.38;5.93;;;;;;;;;;5060684;28;20068;-73
2022/03/12 10:35:51;;;;;;;11.75;6.78;;;;;;;;;;5046810;28;20041;-73
2022/03/12 10:38:17;;;;;;;9.73;5.97;;;;;;;;;;5053496;28;20025;-73
2022/03/12 10:40:44;;;;;;;9.45;6.13;;;;;;;;;;5052344;28;20086;-75
2022/03/12 10:43:13;;;;;;;10.32;6.32;;;;;;;;;;5051487;28;20326;-75
2022/03/12 10:45:48;;;;;;;10.55;6.50;;;;;;;;;;5052377;28;20083;-74
2022/03/12 10:48:19;;;;;;;11.98;6.65;;;;;;;;;;5051776;28;20025;-73
2022/03/12 10:50:47;;;;;;;7.90;5.45;;;;;;;;;;5052538;28;20106;-72
2022/03/12 10:53:15;;;;;;;12.82;6.40;;;;;;;;;;5051238;28;20036;-72
2022/03/12 10:55:50;;;;;;;9.73;5.93;;;;;;;;;;5051214;28;20412;-73
2022/03/12 10:58:16;;;;;;;10.30;5.57;;;;;;;;;;5052588;28;20033;-73
2022/03/12 11:00:49;;;;;;;9.25;5.53;;;;;;;;;;5052603;28;20055;-71
2022/03/12 11:03:20;;;;;;;11.55;5.38;;;;;;;;;;5052191;28;20048;-72
2022/03/12 11:05:47;;;;;;;10.05;5.50;;;;;;;;;;5053169;28;20032;-73
2022/03/12 11:08:21;;;;;;;9.27;5.57;;;;;;;;;;5051608;28;20596;-72
2022/03/12 11:10:52;;;;;;;10.68;5.35;;;;;;;;;;5052124;28;20437;-73
2022/03/12 11:13:34;;;;;;;10.65;4.78;;;;;;;;;;5051834;28;20493;-73
2022/03/12 11:16:05;;;;;;;10.80;4.80;;;;;;;;;;5050030;28;20041;-72
2022/03/12 11:18:31;;;;;;;;;;;;;;;;;;5052692;28;20057;-71
2022/03/12 11:20:57;;;;;;;11.48;5.20;;;;;;;;;;5051382;28;20348;-72
2022/03/12 11:23:27;;;;;;;9.07;4.60;;;;;;;;;;5051545;28;20127;-72
2022/03/12 11:25:57;;;;;;;7.88;4.10;;;;;;;;;;5051159;28;20033;-69
2022/03/12 11:28:24;;;;;;;8.15;4.90;;;;;;;;;;5051965;28;20162;-71
2022/03/12 11:30:53;;;;;;;7.53;4.53;;;;;;;;;;5050400;28;20029;-66
2022/03/12 11:33:21;;;;;;;8.80;4.47;;;;;;;;;;5050643;28;20187;-70
2022/03/12 11:35:46;;;;;;;12.93;4.30;;;;;;;;;;5051722;28;20068;-73
2022/03/12 11:38:19;;;;;;;9.07;4.53;;;;;;;;;;5050704;28;20117;-73
2022/03/12 11:40:47;;;;;;;8.95;4.50;;;;;;;;;;5051425;28;20029;-73
2022/03/12 11:43:27;;;;;;;8.63;3.88;;;;;;;;;;5050396;28;20095;-73
2022/03/12 11:45:55;;;;;;;8.05;4.20;;;;;;;;;;5049446;28;20131;-67
2022/03/12 11:48:21;;;;;;;8.68;4.10;;;;;;;;;;5051167;28;20036;-71
2022/03/12 11:50:46;;;;;;;7.75;4.35;;;;;;;;;;5051150;28;20382;-71
2022/03/12 11:53:17;;;;;;;7.68;4.32;;;;;;;;;;5050874;28;20459;-71
2022/03/12 11:55:46;;;;;;;;;;;;;;;;;;5052062;28;20059;-70
2022/03/12 11:58:11;;;;;;;8.63;4.53;;;;;;;;;;5050427;28;19912;-73
2022/03/12 12:00:36;;;;;;;11.02;4.20;;;;;;;;;;5050426;28;20033;-72
2022/03/12 12:03:02;;;;;;;9.27;4.50;;;;;;;;;;5050935;28;20481;-72
2022/03/12 12:05:30;;;;;;;8.82;4.78;;;;;;;;;;5051546;28;20029;-72
2022/03/12 12:07:55;;;;;;;9.05;5.10;;;;;;;;;;5050683;28;20064;-69
2022/03/12 12:10:32;;;;;;;11.13;5.22;;;;;;;;;;5050283;28;20105;-71
2022/03/12 12:12:58;;;;;;;12.52;5.25;;;;;;;;;;5050085;28;20033;-70
2022/03/12 12:15:34;;;;;;;10.00;5.45;;;;;;;;;;5051683;28;20032;-71
2022/03/12 12:18:02;;;;;;;8.93;5.78;;;;;;;;;;5050852;28;20032;-71
2022/03/12 12:20:29;;;;;;;9.30;5.57;;;;;;;;;;5051616;28;20132;-71
2022/03/12 12:22:56;;;;;;;11.60;5.57;;;;;;;;;;5050760;28;20029;-65
2022/03/12 12:25:22;;;;;;;9.45;5.78;;;;;;;;;;5049799;28;20055;-72
2022/03/12 12:27:52;;;;;;;9.45;5.93;;;;;;;;;;5051040;28;20483;-74
2022/03/12 12:30:40;;;;;;;9.32;5.70;;;;;;;;;;5050746;28;20589;-72
2022/03/12 12:33:24;;;;;;;8.68;5.53;;;;;;;;;;5048366;28;20386;-74
2022/03/12 12:36:08;;;;;;;13.85;5.70;;;;;;;;;;5044942;28;20059;-72
2022/03/12 12:38:34;;;;;;;9.23;5.35;;;;;;;;;;5074584;28;20109;-73
2022/03/12 12:41:03;;;;;;;9.85;5.60;;;;;;;;;;5054452;28;20486;-72
2022/03/12 12:43:39;;;;;;;10.30;5.80;;;;;;;;;;5055226;28;20062;-72
2022/03/12 12:46:06;;;;;;;9.05;5.60;;;;;;;;;;5054273;28;20036;-72
2022/03/12 12:48:48;;;;;;;10.05;6.13;;;;;;;;;;5054441;28;20033;-72
2022/03/12 12:51:20;;;;;;;9.07;5.60;;;;;;;;;;5061532;28;20024;-69
2022/03/12 12:53:45;;;;;;;8.98;5.50;;;;;;;;;;5035215;28;20045;-71
2022/03/12 12:56:21;;;;;;;11.05;6.28;;;;;;;;;;5046261;28;20502;-71
2022/03/12 12:58:53;;;;;;;10.57;5.80;;;;;;;;;;5068343;28;20032;-72
2022/03/12 13:01:20;;;;;;;7.78;5.75;;;;;;;;;;5070992;28;20032;-68
2022/03/12 13:03:50;;;;;;;10.85;6.13;;;;;;;;;;5074713;28;20064;-71
2022/03/12 13:06:40;;;;;;;9.05;5.93;;;;;;;;;;5063374;28;20017;-71
2022/03/12 13:09:11;;;;;;;9.45;5.55;;;;;;;;;;5053516;28;20029;-72
2022/03/12 13:11:50;;;;;;;9.75;5.95;;;;;;;;;;5052467;28;20029;-71
2022/03/12 13:14:25;;;;;;;8.40;5.22;;;;;;;;;;5056620;28;20196;-70
2022/03/12 13:17:00;;;;;;;8.23;5.20;;;;;;;;;;5047802;28;20367;-71
2022/03/12 13:19:28;;;;;;;8.70;5.43;;;;;;;;;;5055139;28;20055;-72
2022/03/12 13:21:57;;;;;;;8.95;6.32;;;;;;;;;;5054151;28;20162;-71
2022/03/12 13:24:22;;;;;;;10.05;5.60;;;;;;;;;;5054315;28;20083;-71
2022/03/12 13:26:50;;;;;;;7.90;5.38;;;;;;;;;;5053803;28;20146;-73
2022/03/12 13:29:21;;;;;;;9.15;6.07;;;;;;;;;;5053759;28;20764;-72
2022/03/12 13:31:47;;;;;;;9.82;5.18;;;;;;;;;;5052546;28;20112;-68
2022/03/12 13:34:15;;;;;;;8.25;5.05;;;;;;;;;;5053222;28;20526;-69
2022/03/12 13:36:49;;;;;;;7.72;5.45;;;;;;;;;;5054210;28;20112;-72
2022/03/12 13:39:16;;;;;;;10.27;5.90;;;;;;;;;;5051733;28;20029;-72
2022/03/12 13:41:43;;;;;;;9.43;5.63;;;;;;;;;;5052036;28;20094;-74
2022/03/12 13:44:09;;;;;;;10.57;5.70;;;;;;;;;;5053138;28;20033;-74
2022/03/12 13:46:35;;;;;;;7.63;5.18;;;;;;;;;;5053107;28;20032;-74
2022/03/12 13:49:04;;;;;;;7.57;5.30;;;;;;;;;;5055653;28;20037;-68
2022/03/12 13:51:31;;;;;;;8.02;5.63;;;;;;;;;;5054805;28;20036;-74
2022/03/12 13:53:59;;;;;;;12.93;5.65;;;;;;;;;;5056579;28;20087;-69
2022/03/12 13:56:27;;;;;;;10.05;5.80;;;;;;;;;;5051858;28;20491;-72
2022/03/12 13:58:53;;;;;;;12.15;5.80;;;;;;;;;;5054904;28;20090;-73
2022/03/12 14:01:29;;;;;;;9.35;5.70;;;;;;;;;;5053927;28;20170;-76
2022/03/12 14:03:55;;;;;;;10.98;5.70;;;;;;;;;;5033944;28;20041;-73
2022/03/12 14:06:40;;;;;;;8.55;5.80;;;;;;;;;;5050994;28;20082;-72
2022/03/12 14:09:08;;;;;;;8.63;5.82;;;;;;;;;;5031172;28;20043;-74
2022/03/12 14:11:49;;;;;;;14.48;5.72;;;;;;;;;;5058846;28;20075;-72
2022/03/12 14:14:18;;;;;;;8.63;5.60;;;;;;;;;;5051688;28;20482;-73
2022/03/12 14:16:46;;;;;;;8.63;5.55;;;;;;;;;;5054500;28;20033;-73
2022/03/12 14:19:18;;;;;;;8.35;5.68;;;;;;;;;;5052440;28;20040;-75
2022/03/12 14:21:46;;;;;;;9.13;5.63;;;;;;;;;;5052899;28;20033;-73
2022/03/12 14:24:22;;;;;;;10.75;5.40;;;;;;;;;;5052397;28;20028;-73
2022/03/12 14:27:01;;;;;;;7.65;5.40;;;;;;;;;;5066795;28;20496;-73
2022/03/12 14:29:29;;;;;;;8.40;5.40;;;;;;;;;;5053109;28;20040;-74
2022/03/12 14:31:57;;;;;;;9.55;5.68;;;;;;;;;;5053725;28;20036;-74
2022/03/12 14:34:26;;;;;;;10.05;5.43;;;;;;;;;;5047706;28;20903;-74
2022/03/12 14:36:53;;;;;;;10.15;5.72;;;;;;;;;;5059061;28;20388;-72
2022/03/12 14:39:20;;;;;;;10.43;5.93;;;;;;;;;;5067778;28;20390;-73